createdAt,value
2023-03-16T00:01:08.804Z,2.00
2023-03-16T00:06:10.393Z,2.00
2023-03-16T00:11:12.211Z,2.00
2023-03-16T00:16:16.914Z,2.00
2023-03-16T00:21:18.590Z,1.90
2023-03-16T00:26:20.234Z,1.90
2023-03-16T00:31:24.960Z,1.90
2023-03-16T00:36:26.629Z,1.90
2023-03-16T00:41:28.261Z,1.90
2023-03-16T00:46:30.035Z,2.00
2023-03-16T00:51:33.821Z,2.00
2023-03-16T00:56:35.439Z,2.00
2023-03-16T01:01:37.053Z,2.00
2023-03-16T01:06:39.915Z,1.90
2023-03-16T01:11:45.250Z,2.00
2023-03-16T01:16:46.873Z,2.00
2023-03-16T01:21:48.486Z,2.00
2023-03-16T01:26:50.107Z,2.00
2023-03-16T01:31:51.725Z,2.20
2023-03-16T01:36:54.150Z,2.20
2023-03-16T01:41:55.746Z,2.20
2023-03-16T01:46:57.694Z,2.20
2023-03-16T01:52:08.496Z,2.20
2023-03-16T01:57:12.312Z,2.20
2023-03-16T02:02:15.398Z,2.20
2023-03-16T02:07:17.680Z,2.20
2023-03-16T02:12:20.286Z,2.20
2023-03-16T02:17:23.840Z,2.20
2023-03-16T02:22:25.451Z,2.30
2023-03-16T02:27:27.016Z,2.30
2023-03-16T02:32:30.530Z,2.30
2023-03-16T02:37:34.509Z,2.40
2023-03-16T02:42:36.139Z,2.40
2023-03-16T02:47:40.085Z,2.40
2023-03-16T02:52:41.874Z,2.40
2023-03-16T02:57:43.407Z,2.40
2023-03-16T03:02:45.421Z,2.40
2023-03-16T03:07:47.252Z,2.30
2023-03-16T03:12:49.473Z,2.30
2023-03-16T03:17:51.054Z,2.30
2023-03-16T03:22:52.680Z,2.20
2023-03-16T03:27:54.772Z,2.20
2023-03-16T03:32:56.456Z,2.30
2023-03-16T03:37:58.030Z,2.20
2023-03-16T03:42:59.603Z,2.20
2023-03-16T03:48:01.144Z,2.20
2023-03-16T03:53:02.702Z,2.20
2023-03-16T03:58:04.240Z,2.20
2023-03-16T04:03:06.476Z,2.20
2023-03-16T04:08:08.105Z,2.20
2023-03-16T04:13:09.883Z,2.30
2023-03-16T04:18:12.823Z,2.30
2023-03-16T04:23:16.507Z,2.40
2023-03-16T04:28:18.171Z,2.40
2023-03-16T04:33:20.234Z,2.40
2023-03-16T04:38:22.194Z,2.40
2023-03-16T04:43:23.715Z,2.40
2023-03-16T04:48:25.785Z,2.50
2023-03-16T04:53:27.634Z,2.40
2023-03-16T04:58:29.282Z,2.40
2023-03-16T05:03:30.810Z,2.40
2023-03-16T05:08:32.400Z,2.50
2023-03-16T05:13:34.281Z,2.50
2023-03-16T05:18:35.918Z,2.60
2023-03-16T05:23:37.458Z,2.60
2023-03-16T05:28:40.033Z,2.60
2023-03-16T05:33:41.619Z,2.60
2023-03-16T05:38:43.398Z,2.60
2023-03-16T05:43:45.355Z,2.60
2023-03-16T05:48:46.917Z,2.60
2023-03-16T05:53:49.059Z,2.70
2023-03-16T05:58:51.840Z,2.70
2023-03-16T06:03:53.414Z,2.70
2023-03-16T06:08:55.105Z,2.60
2023-03-16T06:13:57.890Z,2.60
2023-03-16T06:19:00.030Z,2.60
2023-03-16T06:24:02.489Z,2.60
2023-03-16T06:29:04.319Z,2.60
2023-03-16T06:34:05.863Z,2.70
2023-03-16T06:39:07.524Z,2.80
2023-03-16T06:44:09.338Z,2.90
2023-03-16T06:49:11.073Z,3.00
2023-03-16T06:54:12.655Z,3.10
2023-03-16T06:59:14.197Z,3.20
2023-03-16T07:04:15.947Z,3.30
2023-03-16T07:09:17.833Z,3.50
2023-03-16T07:14:20.013Z,3.70
2023-03-16T07:19:22.739Z,3.80
2023-03-16T07:24:24.405Z,4.00
2023-03-16T07:29:25.999Z,4.10
2023-03-16T07:34:27.630Z,4.30
2023-03-16T07:39:29.273Z,4.60
2023-03-16T07:44:31.249Z,4.80
2023-03-16T07:49:32.858Z,4.90
2023-03-16T07:54:34.372Z,5.00
2023-03-16T07:59:35.896Z,5.20
2023-03-16T08:04:37.524Z,5.30
2023-03-16T08:09:39.104Z,5.20
2023-03-16T08:14:40.631Z,5.30
2023-03-16T08:19:43.020Z,5.30
2023-03-16T08:24:44.600Z,5.40
2023-03-16T08:29:46.628Z,5.50
2023-03-16T08:34:48.273Z,5.50
2023-03-16T08:39:51.778Z,5.60
2023-03-16T08:44:55.068Z,5.60
2023-03-16T08:49:57.290Z,5.80
2023-03-16T08:55:03.510Z,5.80
2023-03-16T09:00:15.224Z,6.10
2023-03-16T09:05:18.120Z,6.20
2023-03-16T09:10:22.966Z,6.10
2023-03-16T09:15:24.512Z,6.10
2023-03-16T09:20:30.068Z,6.10
2023-03-16T09:25:32.468Z,6.20
2023-03-16T09:30:34.566Z,6.20
2023-03-16T09:35:37.193Z,6.40
2023-03-16T09:40:39.636Z,6.60
2023-03-16T09:45:47.443Z,6.60
2023-03-16T09:50:49.834Z,6.70
2023-03-16T09:56:05.016Z,6.80
2023-03-16T10:01:21.926Z,7.00
2023-03-16T10:06:24.848Z,7.10
2023-03-16T10:11:29.572Z,7.20
2023-03-16T10:16:37.442Z,7.20
2023-03-16T10:21:40.562Z,7.40
2023-03-16T10:26:45.245Z,7.50
2023-03-16T10:31:48.848Z,7.70
2023-03-16T10:36:51.242Z,7.70
2023-03-16T10:41:57.060Z,7.60
2023-03-16T10:47:00.275Z,7.80
2023-03-16T10:52:06.178Z,7.90
2023-03-16T10:57:22.739Z,8.20
2023-03-16T11:02:30.498Z,8.70
2023-03-16T11:07:33.646Z,8.80
2023-03-16T11:12:35.301Z,8.80
2023-03-16T11:17:39.842Z,9.00
2023-03-16T11:22:43.028Z,9.10
2023-03-16T11:27:57.691Z,9.60
2023-03-16T11:33:00.548Z,9.80
2023-03-16T11:38:09.595Z,10.10
2023-03-16T11:43:11.129Z,10.10
2023-03-16T11:48:39.057Z,10.50
2023-03-16T11:53:52.445Z,10.50
2023-03-16T11:59:03.311Z,10.50
2023-03-16T12:04:07.924Z,10.70
2023-03-16T12:09:28.781Z,10.80
2023-03-16T12:14:34.513Z,10.90
2023-03-16T12:19:50.364Z,11.40
2023-03-16T12:24:52.061Z,11.10
2023-03-16T12:29:55.684Z,10.90
2023-03-16T12:35:02.884Z,11.20
2023-03-16T12:40:10.801Z,11.50
2023-03-16T12:45:21.673Z,11.80
2023-03-16T12:50:24.403Z,11.70
2023-03-16T12:55:28.057Z,11.50
2023-03-16T13:00:40.567Z,11.80
2023-03-16T13:05:47.695Z,11.50
2023-03-16T13:11:01.672Z,11.50
2023-03-16T13:16:05.895Z,11.60
2023-03-16T13:21:15.012Z,11.60
2023-03-16T13:26:17.998Z,11.70
2023-03-16T13:31:28.686Z,11.70
2023-03-16T13:36:30.682Z,11.60
2023-03-16T13:41:32.278Z,11.60
2023-03-16T13:46:34.233Z,11.80
2023-03-16T13:51:37.898Z,12.00
2023-03-16T13:56:43.214Z,11.90
2023-03-16T14:01:45.839Z,11.90
2023-03-16T14:06:58.558Z,11.90
2023-03-16T14:12:00.655Z,12.00
2023-03-16T14:17:11.194Z,12.00
2023-03-16T14:22:13.478Z,12.00
2023-03-16T14:27:23.026Z,12.10
2023-03-16T14:32:28.473Z,11.80
2023-03-16T14:37:37.245Z,11.70
2023-03-16T14:42:39.151Z,11.60
2023-03-16T14:47:46.202Z,11.60
2023-03-16T14:52:48.041Z,11.60
2023-03-16T14:57:51.305Z,11.60
2023-03-16T15:02:59.376Z,11.70
2023-03-16T15:08:01.669Z,11.70
2023-03-16T15:13:24.332Z,11.70
2023-03-16T15:18:26.027Z,11.70
2023-03-16T15:23:28.649Z,11.70
2023-03-16T15:28:30.219Z,11.80
2023-03-16T15:33:32.054Z,11.90
2023-03-16T15:38:36.207Z,11.90
2023-03-16T15:43:38.124Z,11.80
2023-03-16T15:48:39.741Z,11.60
2023-03-16T15:53:42.711Z,11.60
2023-03-16T15:58:45.863Z,11.50
2023-03-16T16:03:48.294Z,11.60
2023-03-16T16:08:50.061Z,11.50
2023-03-16T16:13:52.350Z,11.60
2023-03-16T16:18:54.156Z,11.30
2023-03-16T16:23:55.874Z,11.20
2023-03-16T16:29:00.745Z,11.20
2023-03-16T16:34:02.805Z,11.10
2023-03-16T16:39:05.903Z,11.10
2023-03-16T16:44:15.659Z,11.00
2023-03-16T16:49:28.217Z,11.00
2023-03-16T16:54:31.037Z,10.90
2023-03-16T16:59:37.506Z,10.90
2023-03-16T17:04:39.209Z,10.80
2023-03-16T17:09:41.426Z,10.70
2023-03-16T17:14:43.029Z,10.70
2023-03-16T17:19:46.657Z,10.60
2023-03-16T17:24:49.466Z,10.50
2023-03-16T17:29:51.742Z,10.50
2023-03-16T17:34:53.399Z,10.50
2023-03-16T17:39:57.406Z,10.40
2023-03-16T17:44:59.977Z,10.40
2023-03-16T17:50:02.511Z,10.40
2023-03-16T17:55:04.536Z,10.20
2023-03-16T18:00:18.393Z,10.20
2023-03-16T18:05:30.469Z,10.20
2023-03-16T18:10:33.041Z,10.10
2023-03-16T18:15:36.482Z,10.10
2023-03-16T18:20:38.136Z,10.00
2023-03-16T18:25:39.829Z,10.00
2023-03-16T18:30:43.320Z,10.00
2023-03-16T18:35:44.985Z,10.00
2023-03-16T18:40:47.449Z,9.90
2023-03-16T18:45:49.180Z,9.90
2023-03-16T18:50:51.082Z,9.90
2023-03-16T18:55:52.725Z,9.80
2023-03-16T19:00:55.598Z,9.80
2023-03-16T19:05:58.492Z,9.70
2023-03-16T19:11:01.711Z,9.70
2023-03-16T19:16:04.127Z,9.70
2023-03-16T19:21:05.727Z,9.70
2023-03-16T19:26:07.647Z,9.70
2023-03-16T19:31:22.603Z,9.60
2023-03-16T19:36:30.150Z,9.70
2023-03-16T19:41:33.251Z,9.60
2023-03-16T19:46:34.992Z,9.60
2023-03-16T19:51:36.584Z,9.50
2023-03-16T19:56:38.402Z,9.50
2023-03-16T20:01:40.103Z,9.50
2023-03-16T20:06:41.874Z,9.40
2023-03-16T20:11:43.682Z,9.30
2023-03-16T20:16:47.219Z,9.30
2023-03-16T20:21:49.027Z,9.30
2023-03-16T20:26:52.027Z,9.30
2023-03-16T20:31:53.779Z,9.20
2023-03-16T20:36:55.955Z,9.20
2023-03-16T20:41:57.695Z,9.20
2023-03-16T20:46:59.291Z,9.10
2023-03-16T20:52:00.963Z,9.10
2023-03-16T20:57:02.503Z,9.10
2023-03-16T21:02:12.526Z,9.10
2023-03-16T21:07:14.156Z,9.00
2023-03-16T21:12:27.031Z,9.00
2023-03-16T21:17:30.793Z,9.00
2023-03-16T21:22:34.751Z,9.10
2023-03-16T21:27:37.379Z,9.00
2023-03-16T21:32:39.098Z,9.00
2023-03-16T21:37:41.078Z,9.20
2023-03-16T21:42:42.724Z,9.00
2023-03-16T21:47:44.778Z,9.10
2023-03-16T21:52:46.946Z,9.00
2023-03-16T21:57:48.998Z,9.00
2023-03-16T22:02:52.335Z,9.00
2023-03-16T22:07:54.064Z,8.90
2023-03-16T22:12:56.275Z,8.80
2023-03-16T22:17:58.715Z,8.80
2023-03-16T22:23:01.313Z,8.90
2023-03-16T22:28:10.566Z,8.80
2023-03-16T22:33:16.860Z,8.80
2023-03-16T22:38:18.469Z,8.80
2023-03-16T22:43:23.350Z,8.80
2023-03-16T22:48:26.817Z,8.80
2023-03-16T22:53:37.337Z,8.80
2023-03-16T22:58:40.550Z,8.70
2023-03-16T23:03:42.167Z,8.70
2023-03-16T23:08:43.806Z,8.60
2023-03-16T23:13:46.431Z,8.70
2023-03-16T23:18:48.686Z,8.80
2023-03-16T23:24:03.042Z,8.80
2023-03-16T23:29:05.781Z,8.80
2023-03-16T23:34:17.894Z,8.80
2023-03-16T23:39:19.492Z,8.80
2023-03-16T23:44:22.665Z,8.70
2023-03-16T23:49:26.368Z,8.70
2023-03-16T23:54:29.601Z,8.70
2023-03-16T23:59:31.240Z,8.60
